KTPL/TPL METAR and TAF weather

Enter ICAO airport designator
Station Type Date Time Source
KTPL METAR 2019/12/07 06:51 UTC NOAA

KTPL 070651Z AUTO 34008KT 10SM CLR 07/04 A3031 RMK AO2 SLP260 T00720039


Station Type Date Time Source
KTPL Decoded METAR 2019/12/07 06:51 UTC NOAA

Temple, Draughon-Miller Central Texas Regional Airport, TX, United States (KTPL) 31-09N 097-24W
Dec 07, 2019 - 01:51 AM EST / 2019.12.07 0651 UTC
Wind: from the NNW (340 degrees) at 9 MPH (8 KT):0
Visibility: 10 mile(s):0
Sky conditions: clear
Temperature: 45.0 F (7.2 C)
Dew Point: 39.0 F (3.9 C)
Relative Humidity: 79%
Pressure (altimeter): 30.31 in. Hg (1026 hPa)
ob: KTPL 070651Z AUTO 34008KT 10SM CLR 07/04 A3031 RMK AO2 SLP260 T00720039
cycle: 7

Station Type Date Time Source
KTPL TAF UTC NOAA

Error!

Example: see airport list